KNQA/NQA METAR and TAF weather

Enter ICAO airport designator
Station Type Date Time Source
KNQA METAR 2019/06/27 10:00 UTC NOAA

KNQA 271000Z AUTO 00000KT 10SM CLR 21/19 A3015 RMK A01


Station Type Date Time Source
KNQA Decoded METAR 2019/06/27 10:00 UTC NOAA

Millington, Millington Municipal Airport, TN, United States (KNQA) 35-21-24N 089-52-13W
Jun 27, 2019 - 06:00 AM EDT / 2019.06.27 1000 UTC
Wind: Calm:0
Visibility: 10 mile(s):0
Sky conditions: clear
Temperature: 69 F (21 C)
Dew Point: 66 F (19 C)
Relative Humidity: 88%
Pressure (altimeter): 30.15 in. Hg (1020 hPa)
ob: KNQA 271000Z AUTO 00000KT 10SM CLR 21/19 A3015 RMK A01
cycle: 10

Station Type Date Time Source
KNQA TAF UTC NOAA

Error!

Example: see airport list